sensor_id;sensor_type;location;lat;lon;timestamp;P1;durP1;ratioP1;P2;durP2;ratioP2
68089;SDS011;54880;50.986;6.990;2023-03-05T00:02:09;10.67;;;2.50;;
68089;SDS011;54880;50.986;6.990;2023-03-05T00:04:35;13.57;;;2.90;;
68089;SDS011;54880;50.986;6.990;2023-03-05T00:07:00;10.30;;;2.30;;
68089;SDS011;54880;50.986;6.990;2023-03-05T00:09:26;10.03;;;2.70;;
68089;SDS011;54880;50.986;6.990;2023-03-05T00:11:52;13.20;;;2.27;;
68089;SDS011;54880;50.986;6.990;2023-03-05T00:14:17;8.88;;;2.15;;
68089;SDS011;54880;50.986;6.990;2023-03-05T00:16:42;11.97;;;2.33;;
68089;SDS011;54880;50.986;6.990;2023-03-05T00:19:08;12.00;;;2.30;;
68089;SDS011;54880;50.986;6.990;2023-03-05T00:21:37;9.23;;;2.35;;
68089;SDS011;54880;50.986;6.990;2023-03-05T00:24:05;14.43;;;2.35;;
68089;SDS011;54880;50.986;6.990;2023-03-05T00:26:33;9.80;;;2.25;;
68089;SDS011;54880;50.986;6.990;2023-03-05T00:28:58;10.20;;;1.98;;
68089;SDS011;54880;50.986;6.990;2023-03-05T00:31:25;12.90;;;2.73;;
68089;SDS011;54880;50.986;6.990;2023-03-05T00:33:53;11.35;;;2.72;;
68089;SDS011;54880;50.986;6.990;2023-03-05T00:36:19;9.20;;;1.80;;
68089;SDS011;54880;50.986;6.990;2023-03-05T00:38:47;10.33;;;1.70;;
68089;SDS011;54880;50.986;6.990;2023-03-05T00:41:12;8.55;;;2.30;;
68089;SDS011;54880;50.986;6.990;2023-03-05T00:43:38;13.90;;;2.40;;
68089;SDS011;54880;50.986;6.990;2023-03-05T00:46:03;13.40;;;2.80;;
68089;SDS011;54880;50.986;6.990;2023-03-05T00:48:28;11.40;;;2.27;;
68089;SDS011;54880;50.986;6.990;2023-03-05T00:50:54;8.87;;;2.23;;
68089;SDS011;54880;50.986;6.990;2023-03-05T00:53:19;11.97;;;2.00;;
68089;SDS011;54880;50.986;6.990;2023-03-05T00:55:44;10.23;;;2.20;;
68089;SDS011;54880;50.986;6.990;2023-03-05T00:58:09;16.93;;;3.00;;
68089;SDS011;54880;50.986;6.990;2023-03-05T01:00:35;12.17;;;2.33;;
68089;SDS011;54880;50.986;6.990;2023-03-05T01:03:00;12.80;;;1.90;;
68089;SDS011;54880;50.986;6.990;2023-03-05T01:05:26;9.88;;;2.25;;
68089;SDS011;54880;50.986;6.990;2023-03-05T01:07:52;13.20;;;2.30;;
68089;SDS011;54880;50.986;6.990;2023-03-05T01:10:18;16.35;;;3.03;;
68089;SDS011;54880;50.986;6.990;2023-03-05T01:12:43;9.03;;;2.20;;
68089;SDS011;54880;50.986;6.990;2023-03-05T01:15:08;13.57;;;2.10;;
68089;SDS011;54880;50.986;6.990;2023-03-05T01:17:34;11.17;;;2.00;;
68089;SDS011;54880;50.986;6.990;2023-03-05T01:19:59;12.32;;;2.08;;
68089;SDS011;54880;50.986;6.990;2023-03-05T01:22:24;10.33;;;2.33;;
68089;SDS011;54880;50.986;6.990;2023-03-05T01:24:50;10.87;;;2.00;;
68089;SDS011;54880;50.986;6.990;2023-03-05T01:27:15;11.13;;;2.00;;
68089;SDS011;54880;50.986;6.990;2023-03-05T01:29:41;11.73;;;1.90;;
68089;SDS011;54880;50.986;6.990;2023-03-05T01:32:06;9.37;;;1.77;;
68089;SDS011;54880;50.986;6.990;2023-03-05T01:34:31;9.43;;;2.17;;
68089;SDS011;54880;50.986;6.990;2023-03-05T01:36:56;6.60;;;2.13;;
68089;SDS011;54880;50.986;6.990;2023-03-05T01:39:22;7.93;;;1.40;;
68089;SDS011;54880;50.986;6.990;2023-03-05T01:41:47;10.87;;;2.20;;
68089;SDS011;54880;50.986;6.990;2023-03-05T01:44:26;14.33;;;2.03;;
68089;SDS011;54880;50.986;6.990;2023-03-05T01:46:52;16.02;;;2.40;;
68089;SDS011;54880;50.986;6.990;2023-03-05T01:54:11;13.17;;;1.73;;
68089;SDS011;54880;50.986;6.990;2023-03-05T01:56:37;9.07;;;1.38;;
68089;SDS011;54880;50.986;6.990;2023-03-05T01:59:03;11.10;;;2.05;;
68089;SDS011;54880;50.986;6.990;2023-03-05T02:01:29;9.30;;;2.27;;
68089;SDS011;54880;50.986;6.990;2023-03-05T02:03:55;12.48;;;2.03;;
68089;SDS011;54880;50.986;6.990;2023-03-05T02:06:20;8.47;;;1.73;;
68089;SDS011;54880;50.986;6.990;2023-03-05T02:08:46;10.20;;;2.13;;
68089;SDS011;54880;50.986;6.990;2023-03-05T02:11:11;11.40;;;1.73;;
68089;SDS011;54880;50.986;6.990;2023-03-05T02:13:36;12.10;;;2.10;;
68089;SDS011;54880;50.986;6.990;2023-03-05T02:16:05;10.32;;;2.10;;
68089;SDS011;54880;50.986;6.990;2023-03-05T02:18:31;10.40;;;2.03;;
68089;SDS011;54880;50.986;6.990;2023-03-05T02:23:23;12.10;;;1.50;;
68089;SDS011;54880;50.986;6.990;2023-03-05T02:25:48;11.55;;;1.50;;
68089;SDS011;54880;50.986;6.990;2023-03-05T02:28:15;8.23;;;1.67;;
68089;SDS011;54880;50.986;6.990;2023-03-05T02:30:42;11.43;;;1.70;;
68089;SDS011;54880;50.986;6.990;2023-03-05T02:33:07;6.13;;;1.40;;
68089;SDS011;54880;50.986;6.990;2023-03-05T02:35:33;8.93;;;1.63;;
68089;SDS011;54880;50.986;6.990;2023-03-05T02:37:58;10.03;;;1.60;;
68089;SDS011;54880;50.986;6.990;2023-03-05T02:40:24;11.32;;;1.80;;
68089;SDS011;54880;50.986;6.990;2023-03-05T02:42:49;7.53;;;1.60;;
68089;SDS011;54880;50.986;6.990;2023-03-05T02:45:15;11.83;;;1.70;;
68089;SDS011;54880;50.986;6.990;2023-03-05T02:47:40;9.00;;;1.90;;
68089;SDS011;54880;50.986;6.990;2023-03-05T02:50:07;6.15;;;1.50;;
68089;SDS011;54880;50.986;6.990;2023-03-05T02:52:32;8.18;;;1.75;;
68089;SDS011;54880;50.986;6.990;2023-03-05T02:54:59;10.27;;;1.77;;
68089;SDS011;54880;50.986;6.990;2023-03-05T02:57:28;7.68;;;1.85;;
68089;SDS011;54880;50.986;6.990;2023-03-05T02:59:53;8.40;;;1.90;;
68089;SDS011;54880;50.986;6.990;2023-03-05T03:02:19;9.83;;;1.60;;
68089;SDS011;54880;50.986;6.990;2023-03-05T03:04:44;11.30;;;2.37;;
68089;SDS011;54880;50.986;6.990;2023-03-05T03:07:10;12.40;;;2.27;;
68089;SDS011;54880;50.986;6.990;2023-03-05T03:09:35;8.75;;;2.03;;
68089;SDS011;54880;50.986;6.990;2023-03-05T03:12:01;11.37;;;2.20;;
68089;SDS011;54880;50.986;6.990;2023-03-05T03:14:29;13.52;;;1.80;;
68089;SDS011;54880;50.986;6.990;2023-03-05T03:16:54;6.80;;;1.77;;
68089;SDS011;54880;50.986;6.990;2023-03-05T03:19:19;17.20;;;2.50;;
68089;SDS011;54880;50.986;6.990;2023-03-05T03:21:45;12.30;;;2.13;;
68089;SDS011;54880;50.986;6.990;2023-03-05T03:24:10;12.27;;;2.47;;
68089;SDS011;54880;50.986;6.990;2023-03-05T03:26:35;12.20;;;1.60;;
68089;SDS011;54880;50.986;6.990;2023-03-05T03:29:00;14.73;;;1.93;;
68089;SDS011;54880;50.986;6.990;2023-03-05T03:31:26;12.37;;;1.60;;
68089;SDS011;54880;50.986;6.990;2023-03-05T03:33:51;8.07;;;1.97;;
68089;SDS011;54880;50.986;6.990;2023-03-05T03:36:16;8.30;;;1.80;;
68089;SDS011;54880;50.986;6.990;2023-03-05T03:38:41;7.80;;;2.33;;
68089;SDS011;54880;50.986;6.990;2023-03-05T03:41:07;9.77;;;2.00;;
68089;SDS011;54880;50.986;6.990;2023-03-05T03:43:33;14.33;;;1.80;;
68089;SDS011;54880;50.986;6.990;2023-03-05T03:45:59;6.97;;;1.70;;
68089;SDS011;54880;50.986;6.990;2023-03-05T03:48:24;6.87;;;1.43;;
68089;SDS011;54880;50.986;6.990;2023-03-05T03:50:49;8.10;;;1.40;;
68089;SDS011;54880;50.986;6.990;2023-03-05T03:53:14;8.03;;;1.57;;
68089;SDS011;54880;50.986;6.990;2023-03-05T03:55:41;10.48;;;2.05;;
68089;SDS011;54880;50.986;6.990;2023-03-05T03:58:07;7.10;;;1.90;;
68089;SDS011;54880;50.986;6.990;2023-03-05T04:00:32;6.97;;;1.85;;
68089;SDS011;54880;50.986;6.990;2023-03-05T04:02:58;10.68;;;2.20;;
68089;SDS011;54880;50.986;6.990;2023-03-05T04:05:23;8.87;;;2.03;;
68089;SDS011;54880;50.986;6.990;2023-03-05T04:07:48;10.33;;;1.83;;
68089;SDS011;54880;50.986;6.990;2023-03-05T04:10:14;10.20;;;1.90;;
68089;SDS011;54880;50.986;6.990;2023-03-05T04:12:39;11.90;;;1.80;;
68089;SDS011;54880;50.986;6.990;2023-03-05T04:15:07;10.93;;;1.90;;
68089;SDS011;54880;50.986;6.990;2023-03-05T04:17:32;10.25;;;1.55;;
68089;SDS011;54880;50.986;6.990;2023-03-05T04:19:57;7.80;;;1.50;;
68089;SDS011;54880;50.986;6.990;2023-03-05T04:22:23;6.57;;;1.33;;
68089;SDS011;54880;50.986;6.990;2023-03-05T04:24:48;8.67;;;1.53;;
68089;SDS011;54880;50.986;6.990;2023-03-05T04:27:13;11.20;;;1.50;;
68089;SDS011;54880;50.986;6.990;2023-03-05T04:29:38;11.00;;;1.80;;
68089;SDS011;54880;50.986;6.990;2023-03-05T04:32:04;9.17;;;1.60;;
68089;SDS011;54880;50.986;6.990;2023-03-05T04:34:29;9.77;;;1.80;;
68089;SDS011;54880;50.986;6.990;2023-03-05T04:36:54;13.73;;;1.80;;
68089;SDS011;54880;50.986;6.990;2023-03-05T04:39:20;7.40;;;2.00;;
68089;SDS011;54880;50.986;6.990;2023-03-05T04:41:46;12.83;;;1.73;;
68089;SDS011;54880;50.986;6.990;2023-03-05T04:44:11;11.40;;;2.15;;
68089;SDS011;54880;50.986;6.990;2023-03-05T04:46:36;9.17;;;2.13;;
68089;SDS011;54880;50.986;6.990;2023-03-05T04:49:01;10.77;;;2.20;;
68089;SDS011;54880;50.986;6.990;2023-03-05T04:51:27;9.60;;;2.27;;
68089;SDS011;54880;50.986;6.990;2023-03-05T04:53:52;11.50;;;1.70;;
68089;SDS011;54880;50.986;6.990;2023-03-05T04:56:17;10.37;;;1.70;;
68089;SDS011;54880;50.986;6.990;2023-03-05T04:58:42;5.53;;;1.60;;
68089;SDS011;54880;50.986;6.990;2023-03-05T05:01:08;9.77;;;1.37;;
68089;SDS011;54880;50.986;6.990;2023-03-05T05:03:33;8.00;;;1.50;;
68089;SDS011;54880;50.986;6.990;2023-03-05T05:05:59;10.23;;;1.63;;
68089;SDS011;54880;50.986;6.990;2023-03-05T05:08:24;8.48;;;1.80;;
68089;SDS011;54880;50.986;6.990;2023-03-05T05:10:56;9.03;;;1.60;;
68089;SDS011;54880;50.986;6.990;2023-03-05T05:13:22;10.83;;;1.83;;
68089;SDS011;54880;50.986;6.990;2023-03-05T05:15:47;6.75;;;1.77;;
68089;SDS011;54880;50.986;6.990;2023-03-05T05:18:13;6.57;;;1.50;;
68089;SDS011;54880;50.986;6.990;2023-03-05T05:20:38;6.97;;;1.70;;
68089;SDS011;54880;50.986;6.990;2023-03-05T05:23:03;6.07;;;1.87;;
68089;SDS011;54880;50.986;6.990;2023-03-05T05:25:28;10.33;;;2.00;;
68089;SDS011;54880;50.986;6.990;2023-03-05T05:27:54;9.10;;;2.00;;
68089;SDS011;54880;50.986;6.990;2023-03-05T05:30:19;12.50;;;2.13;;
68089;SDS011;54880;50.986;6.990;2023-03-05T05:32:44;13.13;;;2.43;;
68089;SDS011;54880;50.986;6.990;2023-03-05T05:35:10;11.53;;;2.17;;
68089;SDS011;54880;50.986;6.990;2023-03-05T05:37:35;10.00;;;2.50;;
68089;SDS011;54880;50.986;6.990;2023-03-05T05:40:00;11.20;;;2.00;;
68089;SDS011;54880;50.986;6.990;2023-03-05T05:42:25;11.82;;;2.67;;
68089;SDS011;54880;50.986;6.990;2023-03-05T05:44:53;8.68;;;2.28;;
68089;SDS011;54880;50.986;6.990;2023-03-05T05:47:19;8.52;;;2.17;;
68089;SDS011;54880;50.986;6.990;2023-03-05T05:49:45;9.90;;;1.80;;
68089;SDS011;54880;50.986;6.990;2023-03-05T05:52:10;10.13;;;2.33;;
68089;SDS011;54880;50.986;6.990;2023-03-05T05:54:35;11.77;;;2.10;;
68089;SDS011;54880;50.986;6.990;2023-03-05T05:57:00;10.33;;;2.23;;
68089;SDS011;54880;50.986;6.990;2023-03-05T05:59:26;10.80;;;3.40;;
68089;SDS011;54880;50.986;6.990;2023-03-05T06:01:51;15.83;;;3.27;;
68089;SDS011;54880;50.986;6.990;2023-03-05T06:04:16;8.93;;;2.53;;
68089;SDS011;54880;50.986;6.990;2023-03-05T06:06:42;12.87;;;2.80;;
68089;SDS011;54880;50.986;6.990;2023-03-05T06:09:07;8.10;;;2.30;;
68089;SDS011;54880;50.986;6.990;2023-03-05T06:11:32;7.87;;;1.77;;
68089;SDS011;54880;50.986;6.990;2023-03-05T06:13:58;7.00;;;1.90;;
68089;SDS011;54880;50.986;6.990;2023-03-05T06:16:23;8.55;;;2.28;;
68089;SDS011;54880;50.986;6.990;2023-03-05T06:18:49;10.27;;;1.93;;
68089;SDS011;54880;50.986;6.990;2023-03-05T06:21:15;11.27;;;2.57;;
68089;SDS011;54880;50.986;6.990;2023-03-05T06:23:41;10.75;;;2.08;;
68089;SDS011;54880;50.986;6.990;2023-03-05T06:26:07;11.32;;;3.03;;
68089;SDS011;54880;50.986;6.990;2023-03-05T06:28:33;12.43;;;2.03;;
68089;SDS011;54880;50.986;6.990;2023-03-05T06:30:59;8.32;;;2.13;;
68089;SDS011;54880;50.986;6.990;2023-03-05T06:33:24;15.27;;;2.28;;
68089;SDS011;54880;50.986;6.990;2023-03-05T06:35:49;9.73;;;2.20;;
68089;SDS011;54880;50.986;6.990;2023-03-05T06:38:14;16.13;;;2.53;;
68089;SDS011;54880;50.986;6.990;2023-03-05T06:40:40;11.67;;;2.00;;
68089;SDS011;54880;50.986;6.990;2023-03-05T06:43:05;10.40;;;2.20;;
68089;SDS011;54880;50.986;6.990;2023-03-05T06:45:30;9.93;;;1.80;;
68089;SDS011;54880;50.986;6.990;2023-03-05T06:47:55;10.53;;;2.00;;
68089;SDS011;54880;50.986;6.990;2023-03-05T06:50:21;10.00;;;2.63;;
68089;SDS011;54880;50.986;6.990;2023-03-05T06:52:48;9.20;;;2.53;;
68089;SDS011;54880;50.986;6.990;2023-03-05T06:55:13;8.90;;;1.98;;
68089;SDS011;54880;50.986;6.990;2023-03-05T06:57:38;7.93;;;2.33;;
68089;SDS011;54880;50.986;6.990;2023-03-05T07:00:03;9.27;;;2.03;;
68089;SDS011;54880;50.986;6.990;2023-03-05T07:02:36;7.50;;;2.10;;
68089;SDS011;54880;50.986;6.990;2023-03-05T07:05:01;9.32;;;2.63;;
68089;SDS011;54880;50.986;6.990;2023-03-05T07:07:26;12.15;;;2.47;;
68089;SDS011;54880;50.986;6.990;2023-03-05T07:09:52;13.40;;;2.13;;
68089;SDS011;54880;50.986;6.990;2023-03-05T07:12:17;9.17;;;2.30;;
68089;SDS011;54880;50.986;6.990;2023-03-05T07:14:43;11.90;;;3.07;;
68089;SDS011;54880;50.986;6.990;2023-03-05T07:17:11;12.52;;;2.92;;
68089;SDS011;54880;50.986;6.990;2023-03-05T07:19:39;12.43;;;3.13;;
68089;SDS011;54880;50.986;6.990;2023-03-05T07:22:05;8.77;;;3.10;;
68089;SDS011;54880;50.986;6.990;2023-03-05T07:24:30;14.38;;;3.30;;
68089;SDS011;54880;50.986;6.990;2023-03-05T07:26:56;10.85;;;3.13;;
68089;SDS011;54880;50.986;6.990;2023-03-05T07:29:21;13.10;;;3.17;;
68089;SDS011;54880;50.986;6.990;2023-03-05T07:31:47;13.27;;;3.60;;
68089;SDS011;54880;50.986;6.990;2023-03-05T07:34:12;13.23;;;4.03;;
68089;SDS011;54880;50.986;6.990;2023-03-05T07:36:38;13.83;;;3.90;;
68089;SDS011;54880;50.986;6.990;2023-03-05T07:39:03;12.77;;;3.37;;
68089;SDS011;54880;50.986;6.990;2023-03-05T07:41:31;12.43;;;4.00;;
68089;SDS011;54880;50.986;6.990;2023-03-05T07:43:56;12.73;;;3.40;;
68089;SDS011;54880;50.986;6.990;2023-03-05T07:46:24;14.77;;;3.10;;
68089;SDS011;54880;50.986;6.990;2023-03-05T07:48:49;10.48;;;2.47;;
68089;SDS011;54880;50.986;6.990;2023-03-05T07:51:16;11.90;;;2.70;;
68089;SDS011;54880;50.986;6.990;2023-03-05T07:53:42;9.18;;;2.50;;
68089;SDS011;54880;50.986;6.990;2023-03-05T07:56:07;8.73;;;2.80;;
68089;SDS011;54880;50.986;6.990;2023-03-05T07:58:33;13.55;;;2.22;;
68089;SDS011;54880;50.986;6.990;2023-03-05T08:00:58;11.07;;;2.67;;
68089;SDS011;54880;50.986;6.990;2023-03-05T08:03:23;7.50;;;2.30;;
68089;SDS011;54880;50.986;6.990;2023-03-05T08:05:49;11.33;;;2.43;;
68089;SDS011;54880;50.986;6.990;2023-03-05T08:08:14;9.50;;;2.50;;
68089;SDS011;54880;50.986;6.990;2023-03-05T08:10:40;15.32;;;2.97;;
68089;SDS011;54880;50.986;6.990;2023-03-05T08:13:05;9.80;;;2.00;;
68089;SDS011;54880;50.986;6.990;2023-03-05T08:15:30;10.20;;;2.67;;
68089;SDS011;54880;50.986;6.990;2023-03-05T08:17:56;10.23;;;3.07;;
68089;SDS011;54880;50.986;6.990;2023-03-05T08:20:21;10.77;;;2.60;;
68089;SDS011;54880;50.986;6.990;2023-03-05T08:22:47;11.70;;;3.30;;
68089;SDS011;54880;50.986;6.990;2023-03-05T08:25:12;13.50;;;2.83;;
68089;SDS011;54880;50.986;6.990;2023-03-05T08:27:41;10.10;;;2.40;;
68089;SDS011;54880;50.986;6.990;2023-03-05T08:30:09;11.73;;;2.83;;
68089;SDS011;54880;50.986;6.990;2023-03-05T08:32:35;14.10;;;2.85;;
68089;SDS011;54880;50.986;6.990;2023-03-05T08:35:00;12.63;;;2.80;;
68089;SDS011;54880;50.986;6.990;2023-03-05T08:37:27;11.73;;;2.90;;
68089;SDS011;54880;50.986;6.990;2023-03-05T08:39:52;8.20;;;2.63;;
68089;SDS011;54880;50.986;6.990;2023-03-05T08:42:17;11.63;;;2.80;;
68089;SDS011;54880;50.986;6.990;2023-03-05T08:44:43;12.70;;;3.07;;
68089;SDS011;54880;50.986;6.990;2023-03-05T08:47:08;11.40;;;2.93;;
68089;SDS011;54880;50.986;6.990;2023-03-05T08:49:33;12.83;;;2.63;;
68089;SDS011;54880;50.986;6.990;2023-03-05T08:51:58;9.03;;;2.53;;
68089;SDS011;54880;50.986;6.990;2023-03-05T08:54:24;13.13;;;2.83;;
68089;SDS011;54880;50.986;6.990;2023-03-05T08:56:49;8.00;;;2.60;;
68089;SDS011;54880;50.986;6.990;2023-03-05T08:59:14;9.57;;;2.63;;
68089;SDS011;54880;50.986;6.990;2023-03-05T09:01:40;9.13;;;2.87;;
68089;SDS011;54880;50.986;6.990;2023-03-05T09:04:05;13.95;;;3.92;;
68089;SDS011;54880;50.986;6.990;2023-03-05T09:06:30;9.37;;;3.10;;
68089;SDS011;54880;50.986;6.990;2023-03-05T09:08:56;13.47;;;3.60;;
68089;SDS011;54880;50.986;6.990;2023-03-05T09:11:21;9.67;;;3.70;;
68089;SDS011;54880;50.986;6.990;2023-03-05T09:13:46;13.50;;;3.33;;
68089;SDS011;54880;50.986;6.990;2023-03-05T09:16:13;13.23;;;3.27;;
68089;SDS011;54880;50.986;6.990;2023-03-05T09:18:39;10.73;;;3.50;;
68089;SDS011;54880;50.986;6.990;2023-03-05T09:21:05;12.30;;;3.30;;
68089;SDS011;54880;50.986;6.990;2023-03-05T09:23:31;9.68;;;3.33;;
68089;SDS011;54880;50.986;6.990;2023-03-05T09:25:56;15.07;;;3.80;;
68089;SDS011;54880;50.986;6.990;2023-03-05T09:28:21;15.10;;;3.77;;
68089;SDS011;54880;50.986;6.990;2023-03-05T09:30:46;12.83;;;4.00;;
68089;SDS011;54880;50.986;6.990;2023-03-05T09:33:12;14.47;;;3.63;;
68089;SDS011;54880;50.986;6.990;2023-03-05T09:35:37;10.77;;;3.47;;
68089;SDS011;54880;50.986;6.990;2023-03-05T09:38:03;13.97;;;4.57;;
68089;SDS011;54880;50.986;6.990;2023-03-05T09:40:30;18.48;;;7.28;;
68089;SDS011;54880;50.986;6.990;2023-03-05T09:45:27;14.95;;;5.53;;
68089;SDS011;54880;50.986;6.990;2023-03-05T09:52:56;14.93;;;7.13;;
68089;SDS011;54880;50.986;6.990;2023-03-05T09:55:26;16.98;;;7.05;;
68089;SDS011;54880;50.986;6.990;2023-03-05T09:57:54;12.77;;;5.05;;
68089;SDS011;54880;50.986;6.990;2023-03-05T10:02:50;11.38;;;4.10;;
68089;SDS011;54880;50.986;6.990;2023-03-05T10:07:52;16.67;;;4.70;;
68089;SDS011;54880;50.986;6.990;2023-03-05T10:10:21;12.65;;;4.50;;
68089;SDS011;54880;50.986;6.990;2023-03-05T10:12:50;25.13;;;11.70;;
68089;SDS011;54880;50.986;6.990;2023-03-05T10:21:04;12.38;;;5.97;;
68089;SDS011;54880;50.986;6.990;2023-03-05T10:29:18;12.00;;;5.18;;
68089;SDS011;54880;50.986;6.990;2023-03-05T10:34:38;10.75;;;4.30;;
68089;SDS011;54880;50.986;6.990;2023-03-05T10:37:17;13.45;;;5.90;;
68089;SDS011;54880;50.986;6.990;2023-03-05T10:45:12;15.75;;;6.47;;
68089;SDS011;54880;50.986;6.990;2023-03-05T10:47:58;15.13;;;6.70;;
68089;SDS011;54880;50.986;6.990;2023-03-05T10:50:25;13.63;;;5.78;;
68089;SDS011;54880;50.986;6.990;2023-03-05T10:55:38;13.23;;;6.60;;
68089;SDS011;54880;50.986;6.990;2023-03-05T10:58:10;15.30;;;7.72;;
68089;SDS011;54880;50.986;6.990;2023-03-05T11:00:35;16.23;;;7.77;;
68089;SDS011;54880;50.986;6.990;2023-03-05T11:03:02;17.77;;;9.50;;
68089;SDS011;54880;50.986;6.990;2023-03-05T11:05:32;18.07;;;8.20;;
68089;SDS011;54880;50.986;6.990;2023-03-05T11:08:00;16.02;;;8.55;;
68089;SDS011;54880;50.986;6.990;2023-03-05T11:10:25;15.53;;;7.70;;
68089;SDS011;54880;50.986;6.990;2023-03-05T11:12:50;16.10;;;7.50;;
68089;SDS011;54880;50.986;6.990;2023-03-05T11:17:45;13.30;;;7.60;;
68089;SDS011;54880;50.986;6.990;2023-03-05T11:25:29;15.90;;;7.32;;
68089;SDS011;54880;50.986;6.990;2023-03-05T11:27:55;12.65;;;7.05;;
68089;SDS011;54880;50.986;6.990;2023-03-05T11:33:16;13.75;;;7.55;;
68089;SDS011;54880;50.986;6.990;2023-03-05T11:35:44;15.57;;;8.65;;
68089;SDS011;54880;50.986;6.990;2023-03-05T11:40:41;13.90;;;7.00;;
68089;SDS011;54880;50.986;6.990;2023-03-05T11:43:08;12.73;;;6.30;;
68089;SDS011;54880;50.986;6.990;2023-03-05T11:45:36;14.48;;;6.65;;
68089;SDS011;54880;50.986;6.990;2023-03-05T11:48:08;11.38;;;5.97;;
68089;SDS011;54880;50.986;6.990;2023-03-05T11:50:33;13.00;;;6.45;;
68089;SDS011;54880;50.986;6.990;2023-03-05T11:53:03;11.63;;;6.13;;
68089;SDS011;54880;50.986;6.990;2023-03-05T11:55:41;12.13;;;6.78;;
68089;SDS011;54880;50.986;6.990;2023-03-05T12:00:48;13.70;;;6.22;;
68089;SDS011;54880;50.986;6.990;2023-03-05T12:03:15;16.23;;;6.70;;
68089;SDS011;54880;50.986;6.990;2023-03-05T12:05:42;11.45;;;5.97;;
68089;SDS011;54880;50.986;6.990;2023-03-05T12:08:10;11.30;;;5.70;;
68089;SDS011;54880;50.986;6.990;2023-03-05T12:10:37;12.50;;;6.28;;
68089;SDS011;54880;50.986;6.990;2023-03-05T12:13:10;12.00;;;6.20;;
68089;SDS011;54880;50.986;6.990;2023-03-05T12:23:04;14.88;;;6.55;;
68089;SDS011;54880;50.986;6.990;2023-03-05T12:25:49;12.13;;;5.90;;
68089;SDS011;54880;50.986;6.990;2023-03-05T12:33:30;9.30;;;4.50;;
68089;SDS011;54880;50.986;6.990;2023-03-05T12:38:39;10.63;;;4.57;;
68089;SDS011;54880;50.986;6.990;2023-03-05T12:46:29;10.32;;;5.55;;
68089;SDS011;54880;50.986;6.990;2023-03-05T12:48:55;9.63;;;4.82;;
68089;SDS011;54880;50.986;6.990;2023-03-05T12:51:28;13.27;;;5.90;;
68089;SDS011;54880;50.986;6.990;2023-03-05T12:53:53;11.17;;;6.17;;
68089;SDS011;54880;50.986;6.990;2023-03-05T12:56:19;12.30;;;7.30;;
68089;SDS011;54880;50.986;6.990;2023-03-05T12:58:46;10.27;;;6.28;;
68089;SDS011;54880;50.986;6.990;2023-03-05T13:01:15;12.82;;;6.75;;
68089;SDS011;54880;50.986;6.990;2023-03-05T13:03:46;13.00;;;5.68;;
68089;SDS011;54880;50.986;6.990;2023-03-05T13:06:22;10.48;;;4.60;;
68089;SDS011;54880;50.986;6.990;2023-03-05T13:08:54;11.27;;;5.30;;
68089;SDS011;54880;50.986;6.990;2023-03-05T13:11:19;12.80;;;6.35;;
68089;SDS011;54880;50.986;6.990;2023-03-05T13:13:45;30.25;;;12.90;;
68089;SDS011;54880;50.986;6.990;2023-03-05T13:16:24;22.70;;;11.93;;
68089;SDS011;54880;50.986;6.990;2023-03-05T13:18:50;9.32;;;4.38;;
68089;SDS011;54880;50.986;6.990;2023-03-05T13:21:17;8.40;;;4.70;;
68089;SDS011;54880;50.986;6.990;2023-03-05T13:23:47;11.63;;;4.50;;
68089;SDS011;54880;50.986;6.990;2023-03-05T13:26:13;8.87;;;3.60;;
68089;SDS011;54880;50.986;6.990;2023-03-05T13:28:39;11.65;;;3.55;;
68089;SDS011;54880;50.986;6.990;2023-03-05T13:31:11;7.05;;;3.10;;
68089;SDS011;54880;50.986;6.990;2023-03-05T13:33:37;11.20;;;6.47;;
68089;SDS011;54880;50.986;6.990;2023-03-05T13:36:02;8.83;;;3.70;;
68089;SDS011;54880;50.986;6.990;2023-03-05T13:38:35;9.40;;;3.03;;
68089;SDS011;54880;50.986;6.990;2023-03-05T13:43:30;8.13;;;3.08;;
68089;SDS011;54880;50.986;6.990;2023-03-05T13:45:56;10.20;;;4.05;;
68089;SDS011;54880;50.986;6.990;2023-03-05T13:48:22;11.52;;;3.40;;
68089;SDS011;54880;50.986;6.990;2023-03-05T13:50:52;10.65;;;4.10;;
68089;SDS011;54880;50.986;6.990;2023-03-05T13:53:25;8.32;;;3.42;;
68089;SDS011;54880;50.986;6.990;2023-03-05T13:55:52;7.65;;;4.00;;
68089;SDS011;54880;50.986;6.990;2023-03-05T14:01:11;8.75;;;4.40;;
68089;SDS011;54880;50.986;6.990;2023-03-05T14:03:37;19.13;;;10.23;;
68089;SDS011;54880;50.986;6.990;2023-03-05T14:06:05;12.90;;;7.43;;
68089;SDS011;54880;50.986;6.990;2023-03-05T14:08:31;13.68;;;6.45;;
68089;SDS011;54880;50.986;6.990;2023-03-05T14:10:57;12.45;;;5.50;;
68089;SDS011;54880;50.986;6.990;2023-03-05T14:13:24;12.30;;;5.60;;
68089;SDS011;54880;50.986;6.990;2023-03-05T14:18:35;14.32;;;6.32;;
68089;SDS011;54880;50.986;6.990;2023-03-05T14:21:08;15.70;;;7.80;;
68089;SDS011;54880;50.986;6.990;2023-03-05T14:26:18;14.18;;;7.00;;
68089;SDS011;54880;50.986;6.990;2023-03-05T14:29:01;14.60;;;7.55;;
68089;SDS011;54880;50.986;6.990;2023-03-05T14:31:28;12.32;;;7.57;;
68089;SDS011;54880;50.986;6.990;2023-03-05T14:33:58;11.60;;;6.60;;
68089;SDS011;54880;50.986;6.990;2023-03-05T14:36:25;11.23;;;5.50;;
68089;SDS011;54880;50.986;6.990;2023-03-05T14:38:50;10.82;;;5.32;;
68089;SDS011;54880;50.986;6.990;2023-03-05T14:41:20;12.43;;;5.93;;
68089;SDS011;54880;50.986;6.990;2023-03-05T14:43:46;15.45;;;6.78;;
68089;SDS011;54880;50.986;6.990;2023-03-05T14:46:11;12.63;;;6.50;;
68089;SDS011;54880;50.986;6.990;2023-03-05T14:48:37;15.20;;;7.50;;
68089;SDS011;54880;50.986;6.990;2023-03-05T14:51:02;14.83;;;7.30;;
68089;SDS011;54880;50.986;6.990;2023-03-05T14:53:28;13.77;;;7.43;;
68089;SDS011;54880;50.986;6.990;2023-03-05T14:55:55;11.52;;;6.15;;
68089;SDS011;54880;50.986;6.990;2023-03-05T14:58:28;10.85;;;6.07;;
68089;SDS011;54880;50.986;6.990;2023-03-05T15:00:56;12.40;;;6.82;;
68089;SDS011;54880;50.986;6.990;2023-03-05T15:03:21;12.47;;;6.67;;
68089;SDS011;54880;50.986;6.990;2023-03-05T15:05:48;12.40;;;6.88;;
68089;SDS011;54880;50.986;6.990;2023-03-05T15:08:15;13.10;;;6.18;;
68089;SDS011;54880;50.986;6.990;2023-03-05T15:10:41;14.47;;;6.80;;
68089;SDS011;54880;50.986;6.990;2023-03-05T15:13:07;12.68;;;7.32;;
68089;SDS011;54880;50.986;6.990;2023-03-05T15:15:32;14.53;;;6.30;;
68089;SDS011;54880;50.986;6.990;2023-03-05T15:17:57;11.23;;;5.47;;
68089;SDS011;54880;50.986;6.990;2023-03-05T15:20:24;14.60;;;6.65;;
68089;SDS011;54880;50.986;6.990;2023-03-05T15:22:49;12.88;;;6.05;;
68089;SDS011;54880;50.986;6.990;2023-03-05T15:25:15;10.00;;;5.33;;
68089;SDS011;54880;50.986;6.990;2023-03-05T15:27:40;12.57;;;6.50;;
68089;SDS011;54880;50.986;6.990;2023-03-05T15:30:06;12.40;;;5.83;;
68089;SDS011;54880;50.986;6.990;2023-03-05T15:32:32;10.75;;;6.00;;
68089;SDS011;54880;50.986;6.990;2023-03-05T15:34:57;12.37;;;5.60;;
68089;SDS011;54880;50.986;6.990;2023-03-05T15:37:23;11.10;;;5.83;;
68089;SDS011;54880;50.986;6.990;2023-03-05T15:39:49;11.68;;;4.97;;
68089;SDS011;54880;50.986;6.990;2023-03-05T15:42:15;10.90;;;5.17;;
68089;SDS011;54880;50.986;6.990;2023-03-05T15:44:40;11.83;;;5.23;;
68089;SDS011;54880;50.986;6.990;2023-03-05T15:47:06;13.98;;;5.68;;
68089;SDS011;54880;50.986;6.990;2023-03-05T15:49:31;10.53;;;5.60;;
68089;SDS011;54880;50.986;6.990;2023-03-05T15:51:57;11.90;;;5.47;;
68089;SDS011;54880;50.986;6.990;2023-03-05T15:54:22;13.37;;;5.23;;
68089;SDS011;54880;50.986;6.990;2023-03-05T15:56:47;12.17;;;6.10;;
68089;SDS011;54880;50.986;6.990;2023-03-05T15:59:13;12.95;;;4.97;;
68089;SDS011;54880;50.986;6.990;2023-03-05T16:01:38;11.47;;;5.07;;
68089;SDS011;54880;50.986;6.990;2023-03-05T16:04:04;10.20;;;5.35;;